createdAt,value
2019-03-01T00:00:01.099Z,1.20
2019-03-01T00:05:01.458Z,1.20
2019-03-01T00:10:01.062Z,1.20
2019-03-01T00:15:01.105Z,1.10
2019-03-01T00:20:01.114Z,1.20
2019-03-01T00:25:01.135Z,1.30
2019-03-01T00:30:01.110Z,1.10
2019-03-01T00:35:01.110Z,1.10
2019-03-01T00:40:01.078Z,1.10
2019-03-01T00:45:01.115Z,1.00
2019-03-01T00:50:01.037Z,1.20
2019-03-01T00:55:01.062Z,1.20
2019-03-01T01:00:01.086Z,1.10
2019-03-01T01:05:01.115Z,1.10
2019-03-01T01:10:01.098Z,1.50
2019-03-01T01:15:01.088Z,1.10
2019-03-01T01:20:01.096Z,1.90
2019-03-01T01:25:01.101Z,1.20
2019-03-01T01:30:01.099Z,1.10
2019-03-01T01:35:01.155Z,1.20
2019-03-01T01:40:01.174Z,1.30
2019-03-01T01:45:01.048Z,0.90
2019-03-01T01:50:01.120Z,1.00
2019-03-01T01:55:01.118Z,1.30
2019-03-01T02:00:01.085Z,1.10
2019-03-01T02:05:01.462Z,1.20
2019-03-01T02:10:01.084Z,1.10
2019-03-01T02:15:01.113Z,1.10
2019-03-01T02:20:01.118Z,1.10
2019-03-01T02:25:01.121Z,1.00
2019-03-01T02:30:01.130Z,1.00
2019-03-01T02:35:01.112Z,1.20
2019-03-01T02:40:01.127Z,1.10
2019-03-01T02:45:01.085Z,1.10
2019-03-01T02:50:01.053Z,1.30
2019-03-01T02:55:01.093Z,1.20
2019-03-01T03:00:01.124Z,1.00
2019-03-01T03:05:01.095Z,1.10
2019-03-01T03:10:01.100Z,1.00
2019-03-01T03:15:01.087Z,1.40
2019-03-01T03:20:01.106Z,1.60
2019-03-01T03:25:01.086Z,1.10
2019-03-01T03:30:01.115Z,1.10
2019-03-01T03:35:01.087Z,1.00
2019-03-01T03:40:01.102Z,1.10
2019-03-01T03:45:01.113Z,0.90
2019-03-01T03:50:01.088Z,1.00
2019-03-01T03:55:01.131Z,0.90
2019-03-01T04:00:01.100Z,1.00
2019-03-01T04:05:01.150Z,0.90
2019-03-01T04:10:01.100Z,0.90
2019-03-01T04:15:01.206Z,1.40
2019-03-01T04:20:01.101Z,0.90
2019-03-01T04:25:01.120Z,1.10
2019-03-01T04:30:01.126Z,0.90
2019-03-01T04:35:01.064Z,1.10
2019-03-01T04:40:01.093Z,1.00
2019-03-01T04:45:01.083Z,1.00
2019-03-01T04:50:01.087Z,1.10
2019-03-01T04:55:01.093Z,1.00
2019-03-01T05:00:01.085Z,0.90
2019-03-01T05:05:01.059Z,0.90
2019-03-01T05:10:01.106Z,1.20
2019-03-01T05:15:01.098Z,1.10
2019-03-01T05:20:01.079Z,1.10
2019-03-01T05:25:01.080Z,1.10
2019-03-01T05:30:01.062Z,1.10
2019-03-01T05:35:01.128Z,1.20
2019-03-01T05:40:01.066Z,1.00
2019-03-01T05:45:01.106Z,0.90
2019-03-01T05:50:01.113Z,1.00
2019-03-01T05:55:01.058Z,1.00
2019-03-01T06:00:01.101Z,1.20
2019-03-01T06:05:01.104Z,1.10
2019-03-01T06:10:01.111Z,1.10
2019-03-01T06:15:01.092Z,1.00
2019-03-01T06:20:01.051Z,1.30
2019-03-01T06:25:01.129Z,1.80
2019-03-01T06:30:01.110Z,1.20
2019-03-01T06:35:01.528Z,1.30
2019-03-01T06:40:01.096Z,2.20
2019-03-01T06:45:01.124Z,1.30
2019-03-01T06:50:01.100Z,1.00
2019-03-01T06:55:01.083Z,1.40
2019-03-01T07:00:01.110Z,1.20
2019-03-01T07:05:01.100Z,1.20
2019-03-01T07:10:01.112Z,1.20
2019-03-01T07:15:01.094Z,1.40
2019-03-01T07:20:01.070Z,1.20
2019-03-01T07:25:01.106Z,1.20
2019-03-01T07:30:01.096Z,1.30
2019-03-01T07:35:01.102Z,1.70
2019-03-01T07:40:01.105Z,1.30
2019-03-01T07:45:01.093Z,1.50
2019-03-01T07:50:01.087Z,1.30
2019-03-01T07:55:01.636Z,1.40
2019-03-01T08:00:01.106Z,1.00
2019-03-01T08:05:04.075Z,1.80
2019-03-01T08:10:01.104Z,1.30
2019-03-01T08:15:04.149Z,1.30
2019-03-01T08:20:01.112Z,1.10
2019-03-01T08:25:01.544Z,1.30
2019-03-01T08:30:01.684Z,1.50
2019-03-01T08:35:01.112Z,1.40
2019-03-01T08:40:01.101Z,1.40
2019-03-01T08:45:01.113Z,1.80
2019-03-01T08:50:01.087Z,1.30
2019-03-01T08:55:03.814Z,1.30
2019-03-01T09:00:01.115Z,1.30
2019-03-01T09:05:01.560Z,1.20
2019-03-01T09:10:01.084Z,1.30
2019-03-01T09:15:04.536Z,1.60
2019-03-01T09:20:01.282Z,1.40
2019-03-01T09:25:02.669Z,1.30
2019-03-01T09:30:03.674Z,1.30
2019-03-01T09:35:04.252Z,1.40
2019-03-01T09:40:05.546Z,1.00
2019-03-01T09:45:01.105Z,1.30
2019-03-01T09:50:01.218Z,1.30
2019-03-01T09:55:01.058Z,1.30
2019-03-01T10:00:01.078Z,1.20
2019-03-01T10:05:01.094Z,1.10
2019-03-01T10:10:01.101Z,1.30
2019-03-01T10:15:01.497Z,1.20
2019-03-01T10:20:01.097Z,1.30
2019-03-01T10:25:01.095Z,1.40
2019-03-01T10:30:01.086Z,1.40
2019-03-01T10:35:01.102Z,1.40
2019-03-01T10:40:01.105Z,1.30
2019-03-01T10:45:01.109Z,1.10
2019-03-01T10:50:01.101Z,1.30
2019-03-01T10:55:01.401Z,1.30
2019-03-01T11:00:01.069Z,1.30
2019-03-01T11:05:01.106Z,1.30
2019-03-01T11:10:01.057Z,1.30
2019-03-01T11:15:01.096Z,1.20
2019-03-01T11:20:01.104Z,1.20
2019-03-01T11:25:01.067Z,1.20
2019-03-01T11:30:01.092Z,1.30
2019-03-01T11:35:01.115Z,1.20
2019-03-01T11:40:01.113Z,1.30
2019-03-01T11:45:01.111Z,1.80
2019-03-01T11:50:01.033Z,1.20
2019-03-01T11:55:01.104Z,1.00
2019-03-01T12:00:01.102Z,1.20
2019-03-01T12:05:01.059Z,1.30
2019-03-01T12:10:01.104Z,1.50
2019-03-01T12:15:01.129Z,1.20
2019-03-01T12:20:01.047Z,0.90
2019-03-01T12:25:01.068Z,1.20
2019-03-01T12:30:01.119Z,1.20
2019-03-01T12:35:01.059Z,1.00
2019-03-01T12:40:01.061Z,1.30
2019-03-01T12:45:01.079Z,1.20
2019-03-01T12:50:01.507Z,1.30
2019-03-01T12:55:01.100Z,1.10
2019-03-01T13:00:01.141Z,1.10
2019-03-01T13:05:01.244Z,1.10
2019-03-01T13:10:03.215Z,1.10
2019-03-01T13:15:01.101Z,1.10
2019-03-01T13:20:02.517Z,1.00
2019-03-01T13:25:01.522Z,1.10
2019-03-01T13:30:01.076Z,1.00
2019-03-01T13:35:01.077Z,0.90
2019-03-01T13:40:01.623Z,1.10
2019-03-01T13:45:01.046Z,0.90
2019-03-01T13:50:05.389Z,1.00
2019-03-01T13:55:01.662Z,1.20
2019-03-01T14:00:01.212Z,1.10
2019-03-01T14:05:01.629Z,1.00
2019-03-01T14:10:04.734Z,1.00
2019-03-01T14:15:02.964Z,1.10
2019-03-01T14:20:01.097Z,1.00
2019-03-01T14:25:02.456Z,0.90
2019-03-01T14:30:01.097Z,1.00
2019-03-01T14:35:01.332Z,1.00
2019-03-01T14:40:01.080Z,1.10
2019-03-01T14:45:01.099Z,1.00
2019-03-01T14:50:01.065Z,1.10
2019-03-01T14:55:01.090Z,1.10
2019-03-01T15:00:01.108Z,1.00
2019-03-01T15:05:04.891Z,1.10
2019-03-01T15:10:01.093Z,1.00
2019-03-01T15:15:01.076Z,1.00
2019-03-01T15:20:01.112Z,1.10
2019-03-01T15:25:01.754Z,0.90
2019-03-01T15:30:01.104Z,0.80
2019-03-01T15:35:04.018Z,0.90
2019-03-01T15:40:01.094Z,3.10
2019-03-01T15:45:01.593Z,1.00
2019-03-01T15:50:01.078Z,2.50
2019-03-01T15:55:01.096Z,2.50
2019-03-01T16:00:01.475Z,2.50
2019-03-01T16:05:01.033Z,4.70
2019-03-01T16:10:02.208Z,4.30
2019-03-01T16:15:01.590Z,3.50
2019-03-01T16:20:01.046Z,1.80
2019-03-01T16:25:01.064Z,2.70
2019-03-01T16:30:01.103Z,3.30
2019-03-01T16:35:01.108Z,3.00
2019-03-01T16:40:01.587Z,3.70
2019-03-01T16:45:01.100Z,3.30
2019-03-01T16:50:02.932Z,1.80
2019-03-01T16:55:01.327Z,1.80
2019-03-01T17:00:01.599Z,2.80
2019-03-01T17:05:03.751Z,3.30
2019-03-01T17:10:01.384Z,1.90
2019-03-01T17:15:01.865Z,2.20
2019-03-01T17:20:02.520Z,2.70
2019-03-01T17:25:01.359Z,1.10
2019-03-01T17:30:01.369Z,1.70
2019-03-01T17:35:04.965Z,1.40
2019-03-01T17:40:01.342Z,1.00
2019-03-01T17:45:01.387Z,1.90
2019-03-01T17:50:01.096Z,1.60
2019-03-01T17:55:02.653Z,1.20
2019-03-01T18:00:01.095Z,1.10
2019-03-01T18:05:01.122Z,4.10
2019-03-01T18:10:01.059Z,2.30
2019-03-01T18:15:01.083Z,6.50
2019-03-01T18:20:01.665Z,5.80
2019-03-01T18:25:01.571Z,4.10
2019-03-01T18:30:01.070Z,2.70
2019-03-01T18:35:01.999Z,6.70
2019-03-01T18:40:01.107Z,3.20
2019-03-01T18:45:03.524Z,2.70
2019-03-01T18:50:01.044Z,2.20
2019-03-01T18:55:01.103Z,4.40
2019-03-01T19:00:01.324Z,5.10
2019-03-01T19:05:04.456Z,2.20
2019-03-01T19:10:01.094Z,4.30
2019-03-01T19:15:01.385Z,5.00
2019-03-01T19:20:02.111Z,4.20
2019-03-01T19:25:02.276Z,3.10
2019-03-01T19:30:01.076Z,3.80
2019-03-01T19:35:01.092Z,1.50
2019-03-01T19:40:01.100Z,2.00
2019-03-01T19:45:04.572Z,1.40
2019-03-01T19:50:01.090Z,1.40
2019-03-01T19:55:01.124Z,1.60
